| time (UTC) | temp F | wind direction | speed knots | gust knots | rain 1hr in | rain 24hr in | rain mn in | humidity % | barometer mb |
| 20260831040059 | 73 | 36 | 1.7 | 5.2 | 0.00 | 0.00 | 0.00 | 64 | 1027.5 |
| 20260831034540 | 74 | 65 | 0.9 | 4.3 | 0.00 | 0.00 | 0.00 | 64 | 1027.6 |
| 20260831033022 | 74 | 9 | 1.7 | 7.8 | 0.00 | 0.00 | 0.00 | 64 | 1027.7 |
| 20260831031603 | 74 | 42 | 2.6 | 6.1 | 0.00 | 0.00 | 0.00 | 62 | 1027.9 |
| 20260831031502 | 74 | 57 | 2.6 | 6.1 | 0.00 | 0.00 | 0.00 | 62 | 1027.9 |
| 20260831030022 | 74 | 44 | 1.7 | 5.2 | 0.00 | 0.00 | 0.00 | 62 | 1028.2 |
| 20260831024622 | 73 | 32 | 2.6 | 6.1 | 0.00 | 0.00 | 0.00 | 63 | 1028.3 |
| 20260831024502 | 73 | 39 | 2.6 | 5.2 | 0.00 | 0.00 | 0.00 | 64 | 1028.3 |
| 20260831023050 | 72 | 26 | 2.6 | 7.0 | 0.00 | 0.00 | 0.00 | 65 | 1028.5 |
| 20260831021532 | 72 | 260 | 1.7 | 4.3 | 0.00 | 0.00 | 0.00 | 69 | 1028.8 |
| 20260831020107 | 72 | 269 | 0.9 | 3.5 | 0.00 | 0.00 | 0.00 | 65 | 1029.1 |
| 20260831014556 | 73 | 49 | 0.9 | 4.3 | 0.00 | 0.00 | 0.00 | 64 | 1029.4 |
| 20260831013017 | 72 | 50 | 0.9 | 5.2 | 0.00 | 0.00 | 0.00 | 59 | 1029.6 |
| 20260831011607 | 71 | 38 | 0.9 | 5.2 | 0.00 | 0.00 | 0.00 | 58 | 1029.8 |
| 20260831010029 | 70 | 344 | 4.3 | 7.0 | 0.00 | 0.00 | 0.00 | 59 | 1030.1 |
| 20260831004556 | 70 | 22 | 2.6 | 5.2 | 0.00 | 0.00 | 0.00 | 62 | 1030.1 |
| 20260831003037 | 69 | 324 | 0.9 | 5.2 | 0.00 | 0.00 | 0.00 | 65 | 1030.1 |
| 20260831001533 | 68 | 325 | 1.7 | 5.2 | 0.00 | 0.00 | 0.00 | 66 | 1030.1 |
| 20260831000043 | 67 | 283 | 1.7 | 3.5 | 0.00 | 0.00 | 0.00 | 68 | 1030.1 |
| 20260830234536 | 65 | 325 | 0.9 | 2.6 | 0.00 | 0.00 | 0.00 | 70 | 1030.1 |
| 20260830233056 | 64 | 294 | 1.7 | 4.3 | 0.00 | 0.00 | 0.00 | 70 | 1030.2 |
| 20260830231532 | 62 | 331 | 0.9 | 4.3 | 0.00 | 0.00 | 0.00 | 75 | 1030.2 |
| 20260830230055 | 59 | 350 | 0.9 | 3.5 | 0.00 | 0.00 | 0.00 | 81 | 1030.2 |
| 20260830224533 | 57 | 333 | 0.9 | 3.5 | 0.00 | 0.00 | 0.00 | 85 | 1030.2 |
| 20260830223016 | 55 | 287 | 0.9 | 4.3 | 0.00 | 0.00 | 0.00 | 88 | 1030.3 |
| 20260830221544 | 54 | 325 | 1.7 | 7.8 | 0.00 | 0.00 | 0.00 | 91 | 1030.1 |
| 20260830220015 | 53 | 355 | 1.7 | 3.5 | 0.00 | 0.00 | 0.00 | 96 | 1030.0 |
| 20260830214549 | 52 | 331 | 1.7 | 4.3 | 0.00 | 0.00 | 0.00 | 98 | 1030.0 |
| 20260830213020 | 50 | 320 | 0.0 | 1.7 | 0.00 | 0.00 | 0.00 | 98 | 1030.0 |
| 20260830211606 | 48 | 355 | 0.0 | 1.7 | 0.00 | 0.00 | 0.00 | 98 | 1030.0 |
| 20260830210017 | 46 | 355 | 0.0 | 1.7 | 0.00 | 0.00 | 0.00 | 98 | 1029.9 |
| 20260830204509 | 45 | 355 | 0.0 | 0.9 | 0.00 | 0.00 | 0.00 | 97 | 1029.8 |
| 20260830203039 | 44 | 355 | 0.0 | 0.9 | 0.00 | 0.00 | 0.00 | 96 | 1029.6 |
| 20260830124515 | 49 | 277 | 0.0 | 0.0 | 0.00 | 0.00 | 0.00 | 94 | 1029.1 |
| 20260830123106 | 49 | 277 | 0.0 | 0.9 | 0.00 | 0.00 | 0.00 | 93 | 1029.2 |
| 20260830123001 | 49 | 277 | 0.0 | 0.9 | 0.00 | 0.00 | 0.00 | 93 | 1029.2 |
| 20260830121537 | 49 | 277 | 0.0 | 0.9 | 0.00 | 0.00 | 0.00 | 93 | 1029.1 |
| 20260830120059 | 50 | 277 | 0.0 | 0.0 | 0.00 | 0.00 | 0.00 | 93 | 1029.3 |
| 20260830120003 | 50 | 277 | 0.0 | 0.0 | 0.00 | 0.00 | 0.00 | 92 | 1029.3 |
| 20260830114555 | 50 | 277 | 0.0 | 0.0 | 0.00 | 0.00 | 0.00 | 92 | 1029.2 |
| 20260830113031 | 50 | 277 | 0.0 | 0.0 | 0.00 | 0.00 | 0.00 | 92 | 1029.1 |
| 20260830111513 | 51 | 277 | 0.0 | 0.0 | 0.00 | 0.00 | 0.00 | 92 | 1029.0 |
| 20260830110033 | 51 | 277 | 0.0 | 0.9 | 0.00 | 0.00 | 0.00 | 91 | 1029.0 |
| 20260830104519 | 52 | 277 | 0.0 | 0.9 | 0.00 | 0.00 | 0.00 | 90 | 1028.8 |
| 20260830103004 | 52 | 277 | 0.0 | 0.0 | 0.00 | 0.00 | 0.00 | 89 | 1028.8 |
| 20260830101542 | 53 | 277 | 0.0 | 0.0 | 0.00 | 0.00 | 0.00 | 88 | 1028.7 |
| 20260830100015 | 53 | 277 | 0.0 | 0.9 | 0.00 | 0.00 | 0.00 | 88 | 1028.5 |
| 20260830094610 | 54 | 277 | 0.0 | 0.0 | 0.00 | 0.00 | 0.00 | 87 | 1028.4 |
| 20260830093039 | 54 | 277 | 0.0 | 0.9 | 0.00 | 0.00 | 0.00 | 86 | 1028.4 |
| 20260830091523 | 55 | 277 | 0.0 | 0.9 | 0.00 | 0.00 | 0.00 | 85 | 1028.3 |
| 20260830090048 | 56 | 277 | 0.0 | 1.7 | 0.00 | 0.00 | 0.00 | 84 | 1028.3 |
| 20260830084528 | 56 | 205 | 0.0 | 0.9 | 0.00 | 0.00 | 0.00 | 83 | 1028.2 |
| 20260830083011 | 57 | 205 | 0.0 | 0.9 | 0.00 | 0.00 | 0.00 | 81 | 1028.1 |
| 20260830081553 | 58 | 205 | 0.0 | 0.0 | 0.00 | 0.00 | 0.00 | 79 | 1028.1 |
| 20260830080036 | 60 | 205 | 0.0 | 0.0 | 0.00 | 0.00 | 0.00 | 76 | 1027.8 |
| 20260830074618 | 61 | 205 | 0.0 | 0.0 | 0.00 | 0.00 | 0.00 | 74 | 1027.8 |
| 20260830074501 | 61 | 205 | 0.0 | 0.0 | 0.00 | 0.00 | 0.00 | 74 | 1027.8 |
| 20260830073041 | 62 | 205 | 0.0 | 0.9 | 0.00 | 0.00 | 0.00 | 72 | 1027.7 |
| 20260830071521 | 64 | 205 | 0.0 | 1.7 | 0.00 | 0.00 | 0.00 | 68 | 1027.5 |
| 20260830070045 | 65 | 205 | 0.9 | 2.6 | 0.00 | 0.00 | 0.00 | 66 | 1027.6 |
| 20260830064542 | 66 | 196 | 1.7 | 3.5 | 0.00 | 0.00 | 0.00 | 64 | 1027.5 |
| 20260830063013 | 67 | 193 | 1.7 | 3.5 | 0.00 | 0.00 | 0.00 | 62 | 1027.4 |
| 20260830061627 | 69 | 132 | 0.9 | 5.2 | 0.00 | 0.00 | 0.00 | 57 | 1027.5 |
| 20260830060027 | 70 | 163 | 0.9 | 5.2 | 0.00 | 0.00 | 0.00 | 57 | 1027.5 |
| 20260830054509 | 70 | 178 | 1.7 | 5.2 | 0.00 | 0.00 | 0.00 | 54 | 1027.5 |
| 20260830053045 | 70 | 184 | 2.6 | 6.1 | 0.00 | 0.00 | 0.00 | 52 | 1027.5 |
| 20260830051531 | 70 | 126 | 2.6 | 4.3 | 0.00 | 0.00 | 0.00 | 51 | 1027.5 |
| 20260830050050 | 71 | 171 | 1.7 | 3.5 | 0.00 | 0.00 | 0.00 | 51 | 1027.5 |
| 20260830044539 | 71 | 170 | 2.6 | 5.2 | 0.00 | 0.00 | 0.00 | 51 | 1027.5 |
| 20260830043019 | 71 | 138 | 1.7 | 5.2 | 0.00 | 0.00 | 0.00 | 53 | 1027.6 |
| 20260830041508 | 71 | 183 | 1.7 | 5.2 | 0.00 | 0.00 | 0.00 | 53 | 1027.6 |